Time;durP1;ratioP1;P1;durP2;ratioP2;P2;SDS_P1;SDS_P2;PMS_P1;PMS_P2;Temp;Humidity;BMP_temperature;BMP_pressure;BME280_temperature;BME280_humidity;BME280_pressure;Samples;Min_cycle;Max_cycle;Signal;HPM_P1;HPM_P2
2023/12/23 00:01:24;;;;;;;0.25;0.25;;;;;;;4.34;79.74;95850.66;5021939;28;20125;-74
2023/12/23 00:03:52;;;;;;;0.25;0.25;;;;;;;4.39;78.78;95853.50;5023439;28;20052;-71
2023/12/23 00:06:19;;;;;;;0.30;0.30;;;;;;;4.46;77.98;95859.63;5027099;28;20046;-73
2023/12/23 00:08:48;;;;;;;0.20;0.20;;;;;;;4.48;78.15;95883.19;5024815;28;20102;-73
2023/12/23 00:11:16;;;;;;;0.30;0.30;;;;;;;4.59;77.32;95886.06;5021394;28;20548;-71
2023/12/23 00:13:44;;;;;;;0.22;0.22;;;;;;;4.63;76.50;95887.28;5022955;28;20037;-72
2023/12/23 00:16:11;;;;;;;0.43;0.43;;;;;;;4.60;76.55;95881.59;5022912;28;20054;-72
2023/12/23 00:18:39;;;;;;;0.20;0.20;;;;;;;4.63;76.25;95878.56;5013483;28;20041;-73
2023/12/23 00:21:06;;;;;;;0.30;0.30;;;;;;;4.58;76.46;95881.78;5029929;28;20515;-75
2023/12/23 00:23:34;;;;;;;0.25;0.25;;;;;;;4.61;76.56;95886.69;5030848;28;20105;-71
2023/12/23 00:26:03;;;;;;;0.35;0.35;;;;;;;4.60;77.19;95892.16;5022127;28;20085;-72
2023/12/23 00:28:31;;;;;;;0.30;0.30;;;;;;;4.36;80.24;95880.31;5015638;28;20072;-72
2023/12/23 00:30:59;;;;;;;0.20;0.20;;;;;;;4.15;82.55;95894.47;5007572;28;20045;-71
2023/12/23 00:33:26;;;;;;;0.20;0.20;;;;;;;3.96;84.33;95880.13;5001679;28;20053;-71
2023/12/23 00:35:54;;;;;;;0.30;0.30;;;;;;;3.87;83.95;95886.59;5012016;28;20080;-71
2023/12/23 00:38:21;;;;;;;0.32;0.32;;;;;;;3.85;84.94;95903.63;5008863;28;20053;-71
2023/12/23 00:40:49;;;;;;;0.40;0.40;;;;;;;3.86;84.92;95906.06;5004150;28;20127;-75
2023/12/23 00:43:18;;;;;;;0.30;0.30;;;;;;;3.87;84.93;95897.16;5015243;28;20045;-73
2023/12/23 00:45:45;;;;;;;0.43;0.43;;;;;;;3.97;83.44;95910.00;5023760;28;20120;-73
2023/12/23 00:48:13;;;;;;;0.30;0.30;;;;;;;4.05;82.34;95904.53;5026784;28;20052;-72
2023/12/23 00:50:41;;;;;;;0.25;0.25;;;;;;;4.15;81.47;95906.84;5025839;28;20045;-75
2023/12/23 00:53:08;;;;;;;0.50;0.50;;;;;;;4.25;80.32;95888.81;5029747;28;20183;-72
2023/12/23 00:55:37;;;;;;;0.13;0.13;;;;;;;4.48;77.68;95928.91;5030032;28;20045;-72
2023/12/23 00:58:05;;;;;;;0.20;0.20;;;;;;;4.47;76.89;95937.81;5012107;28;20085;-72
2023/12/23 01:00:35;;;;;;;0.17;0.17;;;;;;;4.54;76.45;95920.19;5003282;28;20080;-73
2023/12/23 01:03:03;;;;;;;0.40;0.40;;;;;;;4.46;77.81;95956.53;5023341;28;20040;-71
2023/12/23 01:05:32;;;;;;;0.25;0.25;;;;;;;4.36;79.55;95944.50;5007345;28;20141;-72
2023/12/23 01:08:00;;;;;;;0.20;0.20;;;;;;;4.24;80.53;95945.28;5004611;28;20037;-74
2023/12/23 01:10:27;;;;;;;0.13;0.13;;;;;;;4.29;79.77;95954.22;5001085;28;20077;-72
2023/12/23 01:12:55;;;;;;;0.38;0.38;;;;;;;4.24;80.20;95953.19;5033376;28;20044;-72
2023/12/23 01:15:22;;;;;;;0.28;0.28;;;;;;;4.28;79.79;95957.06;5011977;28;20077;-72
2023/12/23 01:17:51;;;;;;;0.20;0.20;;;;;;;4.37;78.78;95964.59;5009302;28;20057;-74
2023/12/23 01:20:20;;;;;;;0.20;0.20;;;;;;;4.39;78.86;96018.06;5033711;28;20124;-72
2023/12/23 01:22:47;;;;;;;0.40;0.40;;;;;;;4.52;78.88;96085.19;5015031;28;20034;-72
2023/12/23 01:25:15;;;;;;;0.22;0.22;;;;;;;3.89;78.90;96071.13;5008075;28;20053;-72
2023/12/23 01:27:44;;;;;;;0.38;0.38;;;;;;;3.45;80.13;96087.97;5024968;28;20080;-72
2023/12/23 01:30:12;;;;;;;0.20;0.20;;;;;;;3.17;81.36;96087.06;5005871;28;20045;-71
2023/12/23 01:32:40;;;;;;;0.22;0.22;;;;;;;2.98;82.59;96085.03;5019828;28;20456;-72
2023/12/23 01:35:09;;;;;;;0.15;0.15;;;;;;;2.93;82.67;96088.19;5022175;28;20477;-72
2023/12/23 01:37:37;;;;;;;0.40;0.40;;;;;;;2.85;83.02;96107.56;5027899;28;20037;-72
2023/12/23 01:40:06;;;;;;;0.10;0.10;;;;;;;2.73;83.34;96101.13;5027583;28;20045;-73
2023/12/23 01:42:34;;;;;;;0.20;0.20;;;;;;;2.79;83.36;96104.84;5016017;28;20045;-72
2023/12/23 01:45:03;;;;;;;0.25;0.25;;;;;;;2.83;83.26;96111.38;5027333;28;20465;-72
2023/12/23 01:47:30;;;;;;;0.20;0.20;;;;;;;2.80;83.54;96114.41;5017040;28;20044;-71
2023/12/23 01:49:58;;;;;;;0.30;0.30;;;;;;;2.75;83.37;96127.28;5010132;28;20053;-72
2023/12/23 01:52:27;;;;;;;0.20;0.20;;;;;;;2.68;84.36;96131.66;5013236;28;20045;-72
2023/12/23 01:54:55;;;;;;;0.30;0.30;;;;;;;2.69;84.31;96138.56;5019550;28;20097;-73
2023/12/23 01:57:23;;;;;;;0.20;0.20;;;;;;;2.58;84.64;96138.00;5007744;28;20049;-74
2023/12/23 01:59:51;;;;;;;0.20;0.20;;;;;;;2.60;84.74;96150.19;5027838;28;20042;-73
2023/12/23 02:02:20;;;;;;;0.15;0.15;;;;;;;2.61;84.93;96164.97;5031882;28;20741;-73
2023/12/23 02:04:48;;;;;;;0.28;0.28;;;;;;;2.55;85.04;96169.97;5033325;28;20421;-73
2023/12/23 02:07:16;;;;;;;0.20;0.20;;;;;;;2.61;84.59;96180.75;5033824;28;20064;-73
2023/12/23 02:09:46;;;;;;;0.20;0.20;;;;;;;2.59;84.86;96191.50;5010744;28;20080;-74
2023/12/23 02:12:20;;;;;;;0.20;0.20;;;;;;;2.64;84.42;96189.13;5025127;28;20132;-74
2023/12/23 02:14:51;;;;;;;0.20;0.20;;;;;;;2.74;84.38;96194.13;5007317;28;20045;-72
2023/12/23 02:17:18;;;;;;;0.30;0.30;;;;;;;2.66;84.20;96188.97;5014858;28;20505;-72
2023/12/23 02:19:46;;;;;;;0.30;0.30;;;;;;;2.64;84.02;96204.09;5009761;28;20053;-74
2023/12/23 02:22:15;;;;;;;0.25;0.25;;;;;;;2.80;83.68;96198.69;5011856;28;20184;-73
2023/12/23 02:24:42;;;;;;;0.22;0.22;;;;;;;2.93;83.19;96220.75;5018605;28;20434;-72
2023/12/23 02:27:12;;;;;;;0.15;0.15;;;;;;;2.86;83.65;96227.75;5019879;28;20515;-73
2023/12/23 02:29:41;;;;;;;0.30;0.30;;;;;;;2.67;83.55;96211.66;5029922;28;20328;-72
2023/12/23 02:32:09;;;;;;;0.35;0.35;;;;;;;2.60;83.86;96203.66;5016366;28;20046;-72
2023/12/23 02:34:37;;;;;;;0.30;0.30;;;;;;;2.44;84.73;96212.53;5027165;28;20084;-72
2023/12/23 02:37:04;;;;;;;0.20;0.20;;;;;;;2.46;85.09;96230.78;5014775;28;20073;-72
2023/12/23 02:39:33;;;;;;;0.20;0.20;;;;;;;2.48;85.33;96221.72;5023014;28;20499;-71
2023/12/23 02:42:01;;;;;;;0.43;0.43;;;;;;;2.37;86.02;96222.13;5015724;28;20405;-71
2023/12/23 02:44:29;;;;;;;0.20;0.20;;;;;;;2.39;86.22;96243.81;4999418;28;20041;-71
2023/12/23 02:46:56;;;;;;;0.20;0.20;;;;;;;2.48;85.47;96231.44;5013187;28;20041;-73
2023/12/23 02:49:24;;;;;;;0.40;0.40;;;;;;;2.57;85.24;96240.88;5011313;28;20385;-71
2023/12/23 02:51:51;;;;;;;0.30;0.30;;;;;;;2.51;85.15;96252.13;5029580;28;20504;-72
2023/12/23 02:54:19;;;;;;;0.30;0.30;;;;;;;2.54;84.97;96251.78;5007463;28;20042;-72
2023/12/23 02:56:48;;;;;;;0.30;0.30;;;;;;;2.44;85.62;96277.53;5034293;28;20037;-72
2023/12/23 02:59:16;;;;;;;0.20;0.20;;;;;;;2.39;85.05;96280.66;4999227;28;20092;-72
2023/12/23 03:01:43;;;;;;;0.30;0.30;;;;;;;2.41;85.03;96288.41;5011390;28;20128;-71
2023/12/23 03:04:11;;;;;;;0.50;0.50;;;;;;;2.34;85.60;96290.09;4999814;28;20041;-71
2023/12/23 03:06:39;;;;;;;0.30;0.30;;;;;;;2.52;84.68;96286.16;5026674;28;20037;-73
2023/12/23 03:09:07;;;;;;;0.30;0.30;;;;;;;2.49;83.36;96289.16;5027315;28;20065;-72
2023/12/23 03:11:36;;;;;;;0.20;0.20;;;;;;;2.52;81.49;96288.81;5011817;28;20046;-71
2023/12/23 03:14:05;;;;;;;0.20;0.20;;;;;;;2.54;80.51;96275.47;5006159;28;20061;-73
2023/12/23 03:16:35;;;;;;;0.20;0.20;;;;;;;2.63;80.24;96279.66;5027508;28;20053;-72
2023/12/23 03:19:04;;;;;;;0.30;0.30;;;;;;;2.70;79.08;96285.06;5029930;28;20045;-71
2023/12/23 03:21:32;;;;;;;0.30;0.30;;;;;;;2.65;79.93;96288.22;5012547;28;20060;-74
2023/12/23 03:24:00;;;;;;;0.25;0.25;;;;;;;2.62;79.31;96287.75;5015972;28;20057;-73
2023/12/23 03:26:28;;;;;;;0.20;0.20;;;;;;;2.56;80.08;96282.19;5020384;28;20073;-73
2023/12/23 03:28:55;;;;;;;0.38;0.30;;;;;;;2.75;79.87;96291.41;5007606;28;20041;-71
2023/12/23 03:31:24;;;;;;;0.30;0.30;;;;;;;2.65;80.23;96300.56;5023250;28;20058;-74
2023/12/23 03:33:52;;;;;;;0.30;0.30;;;;;;;2.60;80.72;96295.81;5000993;28;20508;-71
2023/12/23 03:36:20;;;;;;;0.20;0.20;;;;;;;2.55;80.97;96304.25;5009032;28;20053;-73
2023/12/23 03:38:47;;;;;;;0.20;0.20;;;;;;;2.54;81.01;96299.16;5028422;28;20041;-77
2023/12/23 03:41:15;;;;;;;0.30;0.30;;;;;;;2.55;81.69;96300.81;5025449;28;20405;-71
2023/12/23 03:43:43;;;;;;;0.20;0.20;;;;;;;2.55;81.06;96306.91;5019696;28;20041;-72
2023/12/23 03:46:11;;;;;;;0.20;0.20;;;;;;;2.55;81.14;96299.00;5025943;28;20041;-71
2023/12/23 03:48:40;;;;;;;0.20;0.20;;;;;;;2.56;80.54;96297.19;5000143;28;20053;-70
2023/12/23 03:51:07;;;;;;;0.20;0.20;;;;;;;2.62;81.34;96300.91;5011582;28;20056;-71
2023/12/23 03:53:36;;;;;;;0.20;0.20;;;;;;;2.64;79.78;96307.66;5020661;28;20117;-74
2023/12/23 03:56:03;;;;;;;0.35;0.35;;;;;;;2.79;79.98;96307.69;5011069;28;20076;-71
2023/12/23 03:58:31;;;;;;;0.30;0.30;;;;;;;2.70;80.20;96314.03;5013485;28;20460;-72
2023/12/23 04:00:59;;;;;;;0.50;0.50;;;;;;;2.61;80.99;96331.69;5025537;28;20037;-72
2023/12/23 04:03:26;;;;;;;0.20;0.20;;;;;;;2.68;81.09;96334.44;5031513;28;20121;-72
2023/12/23 04:05:56;;;;;;;0.20;0.20;;;;;;;2.63;81.42;96342.06;5003466;28;20046;-74
2023/12/23 04:08:23;;;;;;;0.20;0.20;;;;;;;2.61;82.34;96336.94;5041831;28;20049;-72
2023/12/23 04:10:51;;;;;;;0.20;0.20;;;;;;;2.63;82.33;96336.78;5047412;28;20061;-73
2023/12/23 04:13:19;;;;;;;0.32;0.32;;;;;;;2.65;82.43;96347.97;5012927;28;20041;-74
2023/12/23 04:15:46;;;;;;;0.40;0.40;;;;;;;2.63;83.06;96345.50;5015378;28;20121;-75
2023/12/23 04:18:14;;;;;;;0.30;0.30;;;;;;;2.53;83.47;96356.28;5021651;28;20053;-71
2023/12/23 04:20:42;;;;;;;0.30;0.30;;;;;;;2.57;82.85;96357.56;5019102;28;20072;-72
2023/12/23 04:23:11;;;;;;;0.30;0.30;;;;;;;2.64;83.67;96362.13;5009165;28;20137;-72
2023/12/23 04:25:38;;;;;;;0.40;0.40;;;;;;;2.53;84.12;96358.91;5020102;28;20050;-72
2023/12/23 04:28:06;;;;;;;0.30;0.30;;;;;;;2.48;84.70;96363.91;5034807;28;20488;-72
2023/12/23 04:30:35;;;;;;;0.28;0.28;;;;;;;2.34;85.50;96369.91;5018844;28;20542;-72
2023/12/23 04:33:03;;;;;;;0.22;0.22;;;;;;;2.33;85.99;96368.25;5006069;28;20069;-72
2023/12/23 04:35:31;;;;;;;0.75;0.75;;;;;;;2.41;85.53;96357.66;5030203;28;20049;-74
2023/12/23 04:37:58;;;;;;;0.20;0.20;;;;;;;2.19;86.29;96366.34;5009463;28;20076;-72
2023/12/23 04:40:27;;;;;;;0.20;0.20;;;;;;;2.22;86.18;96368.66;5002243;28;20490;-72
2023/12/23 04:42:55;;;;;;;0.30;0.30;;;;;;;2.16;86.25;96350.94;5004106;28;20052;-72
2023/12/23 04:45:23;;;;;;;0.35;0.35;;;;;;;2.20;86.22;96349.56;5008031;28;20045;-72
2023/12/23 04:47:52;;;;;;;0.40;0.40;;;;;;;2.15;86.41;96355.38;5028367;28;20037;-72
2023/12/23 04:50:19;;;;;;;0.40;0.40;;;;;;;2.21;86.08;96340.69;5000579;28;20140;-75
2023/12/23 04:52:48;;;;;;;0.20;0.20;;;;;;;2.22;86.43;96351.03;5010455;28;20286;-72
2023/12/23 04:55:17;;;;;;;0.25;0.25;;;;;;;2.18;86.43;96357.63;5003054;28;20048;-72
2023/12/23 04:57:46;;;;;;;0.17;0.17;;;;;;;2.19;86.74;96340.03;5000988;28;20049;-72
2023/12/23 05:00:14;;;;;;;0.28;0.28;;;;;;;2.13;86.65;96338.09;5022100;28;20052;-73
2023/12/23 05:02:42;;;;;;;0.35;0.35;;;;;;;2.08;86.80;96332.53;5008607;28;20049;-71
2023/12/23 05:05:10;;;;;;;0.30;0.30;;;;;;;2.03;87.22;96338.31;5028394;28;20050;-72
2023/12/23 05:07:37;;;;;;;0.30;0.30;;;;;;;2.10;87.07;96334.00;5022723;28;20532;-72
2023/12/23 05:10:06;;;;;;;0.40;0.40;;;;;;;2.07;87.34;96344.06;5025359;28;20344;-74
2023/12/23 05:12:34;;;;;;;0.30;0.30;;;;;;;1.99;86.92;96337.03;5012774;28;20119;-73
2023/12/23 05:15:03;;;;;;;0.30;0.30;;;;;;;2.07;87.12;96325.66;5004689;28;20041;-73
2023/12/23 05:17:31;;;;;;;0.40;0.40;;;;;;;2.00;86.90;96337.84;5010904;28;20089;-73
2023/12/23 05:19:59;;;;;;;0.32;0.32;;;;;;;2.04;86.71;96332.06;5007644;28;20041;-74
2023/12/23 05:22:27;;;;;;;0.40;0.40;;;;;;;2.03;87.03;96343.59;5013289;28;20234;-74
2023/12/23 05:24:56;;;;;;;0.20;0.20;;;;;;;2.03;87.08;96353.28;5004082;28;20049;-74
2023/12/23 05:27:24;;;;;;;0.43;0.43;;;;;;;2.06;87.19;96352.97;5006617;28;20168;-74
2023/12/23 05:29:51;;;;;;;0.40;0.40;;;;;;;2.06;87.46;96343.25;5003609;28;20439;-74
2023/12/23 05:32:20;;;;;;;0.30;0.30;;;;;;;1.97;88.06;96325.88;5008242;28;20111;-74
2023/12/23 05:34:48;;;;;;;0.30;0.30;;;;;;;1.99;88.16;96320.41;5027516;28;20076;-75
2023/12/23 05:37:16;;;;;;;0.40;0.40;;;;;;;1.92;88.38;96317.66;5026749;28;20084;-73
2023/12/23 05:39:47;;;;;;;0.30;0.30;;;;;;;1.87;88.89;96312.09;5026769;28;20042;-75
2023/12/23 05:42:15;;;;;;;0.20;0.20;;;;;;;1.86;89.29;96310.47;5032891;28;20046;-74
2023/12/23 05:44:43;;;;;;;0.40;0.40;;;;;;;1.95;89.55;96308.63;5017371;28;20052;-75
2023/12/23 05:47:12;;;;;;;0.40;0.40;;;;;;;1.97;89.42;96294.31;5026565;28;20049;-74
2023/12/23 05:49:41;;;;;;;0.40;0.40;;;;;;;2.09;89.20;96289.44;5027729;28;20041;-74
2023/12/23 05:52:08;;;;;;;0.20;0.20;;;;;;;2.05;88.96;96282.91;5027362;28;20127;-75
2023/12/23 05:54:36;;;;;;;0.20;0.20;;;;;;;1.97;89.39;96280.34;5024992;28;20041;-74
2023/12/23 05:57:04;;;;;;;0.40;0.40;;;;;;;2.09;89.24;96278.91;5029234;28;20038;-74
2023/12/23 05:59:32;;;;;;;0.30;0.30;;;;;;;2.03;89.10;96267.28;5030921;28;20140;-75
2023/12/23 06:02:00;;;;;;;0.28;0.28;;;;;;;2.04;89.31;96263.66;5023702;28;20096;-74
2023/12/23 06:04:28;;;;;;;0.30;0.30;;;;;;;1.97;89.58;96273.25;5027104;28;20033;-73
2023/12/23 06:06:59;;;;;;;0.30;0.30;;;;;;;1.97;89.63;96269.81;5018981;28;20053;-74
2023/12/23 06:09:27;;;;;;;0.20;0.20;;;;;;;1.94;90.36;96278.88;5028494;28;20112;-74
2023/12/23 06:11:54;;;;;;;0.20;0.20;;;;;;;1.95;90.52;96269.16;5031531;28;20087;-73
2023/12/23 06:14:22;;;;;;;0.20;0.20;;;;;;;1.96;90.79;96268.16;5022935;28;20049;-73
2023/12/23 06:16:49;;;;;;;0.10;0.10;;;;;;;1.98;90.54;96276.69;5029631;28;20117;-75
2023/12/23 06:19:17;;;;;;;0.20;0.20;;;;;;;1.95;90.89;96269.97;5033222;28;20478;-75
2023/12/23 06:21:46;;;;;;;0.52;0.52;;;;;;;1.93;91.28;96264.06;5030659;28;20052;-75
2023/12/23 06:24:15;;;;;;;0.20;0.20;;;;;;;1.93;91.63;96268.50;5021589;28;20041;-74
2023/12/23 06:26:44;;;;;;;0.30;0.30;;;;;;;1.97;91.57;96269.81;5031860;28;20042;-74
2023/12/23 06:29:12;;;;;;;0.43;0.43;;;;;;;1.98;91.77;96263.53;5028949;28;20063;-74
2023/12/23 06:31:40;;;;;;;0.32;0.32;;;;;;;1.98;91.73;96261.72;5025462;28;20042;-74
2023/12/23 06:34:08;;;;;;;0.22;0.22;;;;;;;1.98;91.76;96261.72;5027948;28;20060;-74
2023/12/23 06:36:35;;;;;;;0.40;0.40;;;;;;;1.98;92.17;96258.28;5030072;28;20041;-75
2023/12/23 06:39:03;;;;;;;0.20;0.20;;;;;;;2.02;92.42;96244.59;5014820;28;20057;-74
2023/12/23 06:41:32;;;;;;;0.20;0.20;;;;;;;2.13;92.17;96249.47;5022918;28;20045;-74
2023/12/23 06:44:00;;;;;;;0.30;0.30;;;;;;;2.05;92.35;96253.97;5023677;28;20421;-74
2023/12/23 06:46:28;;;;;;;0.30;0.30;;;;;;;2.12;92.34;96249.63;5021548;28;20037;-74
2023/12/23 06:48:55;;;;;;;0.40;0.40;;;;;;;2.14;92.21;96248.47;5023592;28;20412;-74
2023/12/23 06:51:23;;;;;;;0.38;0.38;;;;;;;2.12;92.37;96241.75;5017673;28;20457;-73
2023/12/23 06:53:50;;;;;;;0.32;0.32;;;;;;;2.10;92.33;96238.47;5024093;28;20515;-73
2023/12/23 06:56:18;;;;;;;0.10;0.10;;;;;;;2.10;92.67;96241.91;5030464;28;20556;-74
2023/12/23 06:58:47;;;;;;;0.30;0.30;;;;;;;2.12;92.80;96237.28;5022345;28;20045;-75
2023/12/23 07:01:15;;;;;;;0.20;0.20;;;;;;;2.11;92.74;96238.28;5026672;28;20050;-73
2023/12/23 07:03:43;;;;;;;0.30;0.30;;;;;;;2.14;92.73;96222.16;5024364;28;20045;-74
2023/12/23 07:06:12;;;;;;;0.30;0.30;;;;;;;2.12;92.37;96225.94;5020160;28;20033;-76
2023/12/23 07:08:40;;;;;;;0.20;0.20;;;;;;;2.14;92.31;96218.69;5021260;28;20049;-74
2023/12/23 07:11:10;;;;;;;0.20;0.20;;;;;;;2.15;92.62;96221.16;5031139;28;20057;-74
2023/12/23 07:13:37;;;;;;;0.30;0.30;;;;;;;2.16;92.73;96206.19;5021115;28;20046;-74
2023/12/23 07:16:08;;;;;;;0.35;0.35;;;;;;;2.21;93.19;96206.47;5024950;28;20387;-74
2023/12/23 07:18:36;;;;;;;0.22;0.22;;;;;;;2.27;93.11;96197.88;5027161;28;20059;-74
2023/12/23 07:21:04;;;;;;;0.20;0.20;;;;;;;2.34;92.67;96201.44;5028720;28;20049;-74
2023/12/23 07:23:31;;;;;;;0.20;0.20;;;;;;;2.35;92.70;96195.16;5032343;28;20060;-74
2023/12/23 07:25:59;;;;;;;0.40;0.40;;;;;;;2.35;92.65;96182.00;5027571;28;20516;-75
2023/12/23 07:28:26;;;;;;;0.20;0.20;;;;;;;2.35;92.80;96178.56;5030842;28;20042;-74
2023/12/23 07:30:54;;;;;;;0.20;0.20;;;;;;;2.41;92.30;96178.66;5023797;28;20042;-74
2023/12/23 07:33:23;;;;;;;0.30;0.30;;;;;;;2.39;92.14;96171.94;5023260;28;20064;-75
2023/12/23 07:35:50;;;;;;;0.32;0.32;;;;;;;2.35;92.13;96166.22;5019699;28;20049;-74
2023/12/23 07:38:18;;;;;;;0.20;0.20;;;;;;;2.34;92.31;96155.88;5027994;28;20026;-74
2023/12/23 07:40:46;;;;;;;0.30;0.30;;;;;;;2.30;92.26;96165.09;5029887;28;20059;-73
2023/12/23 07:43:14;;;;;;;0.20;0.20;;;;;;;2.26;92.23;96155.94;5022906;28;20104;-74
2023/12/23 07:45:42;;;;;;;0.30;0.30;;;;;;;2.24;92.33;96142.97;5024915;28;20037;-75
2023/12/23 07:48:09;;;;;;;0.20;0.20;;;;;;;2.20;92.26;96136.41;5019941;28;20095;-74
2023/12/23 07:50:38;;;;;;;0.20;0.20;;;;;;;2.16;92.17;96138.59;5015395;28;20087;-74
2023/12/23 07:53:06;;;;;;;0.20;0.20;;;;;;;2.04;92.12;96134.75;5010352;28;20049;-74
2023/12/23 07:55:34;;;;;;;0.25;0.25;;;;;;;2.05;91.80;96130.31;5028919;28;20057;-74
2023/12/23 07:58:02;;;;;;;0.30;0.30;;;;;;;1.91;92.20;96118.75;5021500;28;20124;-74
2023/12/23 08:00:29;;;;;;;0.35;0.35;;;;;;;1.80;92.42;96122.63;5022533;28;20485;-73
2023/12/23 08:02:57;;;;;;;0.20;0.20;;;;;;;1.73;92.31;96103.28;5017746;28;20052;-74
2023/12/23 08:05:24;;;;;;;0.30;0.30;;;;;;;1.70;92.85;96111.53;5030808;28;20046;-75
2023/12/23 08:07:54;;;;;;;0.30;0.30;;;;;;;1.68;92.44;96100.34;5027727;28;20068;-74
2023/12/23 08:10:21;;;;;;;0.20;0.20;;;;;;;1.62;92.09;96090.56;5034491;28;20365;-73
2023/12/23 08:12:49;;;;;;;0.20;0.20;;;;;;;1.55;92.63;96087.00;5026348;28;20116;-73
2023/12/23 08:15:17;;;;;;;0.15;0.15;;;;;;;1.59;92.91;96084.81;5025901;28;20693;-74
2023/12/23 08:17:45;;;;;;;0.52;0.52;;;;;;;1.54;92.81;96074.84;5002847;28;20477;-74
2023/12/23 08:20:12;;;;;;;0.20;0.20;;;;;;;1.50;92.84;96064.84;5024789;28;20049;-73
2023/12/23 08:22:41;;;;;;;0.45;0.45;;;;;;;1.54;93.12;96068.78;5030787;28;20065;-74
2023/12/23 08:25:10;;;;;;;0.30;0.30;;;;;;;1.50;93.05;96068.31;5026001;28;20054;-74
2023/12/23 08:27:38;;;;;;;0.20;0.20;;;;;;;1.50;92.99;96052.53;5027322;28;20478;-76
2023/12/23 08:30:07;;;;;;;0.50;0.50;;;;;;;1.54;92.88;96045.13;5029288;28;20049;-74
2023/12/23 08:32:35;;;;;;;0.20;0.20;;;;;;;1.63;92.63;96036.16;5027958;28;20164;-74
2023/12/23 08:35:03;;;;;;;0.30;0.30;;;;;;;1.66;92.12;96036.59;5020517;28;20037;-74
2023/12/23 08:37:31;;;;;;;0.22;0.22;;;;;;;1.60;92.34;96026.00;5022811;28;20461;-74
2023/12/23 08:39:58;;;;;;;0.32;0.32;;;;;;;1.60;92.12;96016.28;5027604;28;20065;-76
2023/12/23 08:42:27;;;;;;;0.20;0.20;;;;;;;1.48;92.89;96018.53;5028416;28;20053;-74
2023/12/23 08:44:55;;;;;;;0.30;0.30;;;;;;;1.52;93.14;96020.81;5030961;28;20120;-74
2023/12/23 08:47:22;;;;;;;0.30;0.30;;;;;;;1.55;92.75;96015.22;5025604;28;20045;-74
2023/12/23 08:49:50;;;;;;;0.63;0.63;;;;;;;1.49;93.05;96000.94;5031095;28;20505;-74
2023/12/23 08:52:17;;;;;;;0.25;0.25;;;;;;;1.54;93.22;96001.25;5028806;28;20112;-74
2023/12/23 08:54:45;;;;;;;0.30;0.30;;;;;;;1.57;93.44;95987.72;5026081;28;20125;-74
2023/12/23 08:57:13;;;;;;;0.20;0.20;;;;;;;1.61;93.32;95991.63;5021106;28;20136;-74
2023/12/23 08:59:42;;;;;;;0.20;0.20;;;;;;;1.69;93.28;95978.41;5025674;28;20052;-74
2023/12/23 09:02:09;;;;;;;0.40;0.40;;;;;;;1.74;93.32;95977.88;5022839;28;20056;-74
2023/12/23 09:04:37;;;;;;;0.20;0.20;;;;;;;1.80;93.01;95975.34;5030447;28;20046;-76
2023/12/23 09:07:04;;;;;;;0.30;0.30;;;;;;;1.81;93.29;95966.47;5022826;28;20232;-75
2023/12/23 09:09:32;;;;;;;0.40;0.40;;;;;;;1.91;93.42;95962.75;5029743;28;20052;-74
2023/12/23 09:12:00;;;;;;;0.30;0.30;;;;;;;1.96;93.43;95960.41;5022943;28;20045;-74
2023/12/23 09:14:27;;;;;;;0.20;0.20;;;;;;;1.97;93.10;95964.66;5028981;28;20045;-74
2023/12/23 09:16:56;;;;;;;0.20;0.20;;;;;;;1.97;92.96;95954.13;5030959;28;20041;-74
2023/12/23 09:19:24;;;;;;;0.40;0.40;;;;;;;2.06;92.99;95953.84;5023038;28;20049;-74
2023/12/23 09:21:51;;;;;;;0.20;0.20;;;;;;;2.14;92.61;95947.69;5030970;28;20034;-75
2023/12/23 09:24:19;;;;;;;0.25;0.25;;;;;;;2.18;92.66;95946.31;5021986;28;20505;-75
2023/12/23 09:26:47;;;;;;;0.20;0.20;;;;;;;2.17;92.79;95932.34;5013102;28;20120;-74
2023/12/23 09:29:15;;;;;;;0.20;0.20;;;;;;;2.19;93.08;95932.13;5028708;28;20401;-76
2023/12/23 09:31:43;;;;;;;0.30;0.30;;;;;;;2.32;92.30;95932.31;5027570;28;20452;-73
2023/12/23 09:34:12;;;;;;;0.30;0.30;;;;;;;2.32;92.53;95927.03;5025858;28;20457;-73
2023/12/23 09:36:39;;;;;;;0.30;0.30;;;;;;;2.36;93.03;95919.59;5021081;28;20037;-74
2023/12/23 09:39:07;;;;;;;0.25;0.25;;;;;;;2.34;93.53;95926.88;5034668;28;20046;-74
2023/12/23 09:41:35;;;;;;;0.40;0.40;;;;;;;2.42;93.93;95911.78;5031183;28;20042;-74
2023/12/23 09:44:03;;;;;;;0.38;0.38;;;;;;;2.49;95.00;95912.66;5033534;28;20045;-74
2023/12/23 09:46:32;;;;;;;0.20;0.20;;;;;;;2.67;94.97;95914.06;5030376;28;20092;-74
2023/12/23 09:48:59;;;;;;;0.20;0.20;;;;;;;2.82;95.23;95905.09;5034628;28;20051;-74
2023/12/23 09:51:33;;;;;;;0.32;0.32;;;;;;;3.11;95.46;95900.69;5026640;28;20116;-74
2023/12/23 09:54:03;;;;;;;0.20;0.20;;;;;;;3.36;95.20;95888.72;5013809;28;20069;-73
2023/12/23 09:56:31;;;;;;;0.30;0.30;;;;;;;3.58;95.02;95876.28;5030332;28;20046;-74
2023/12/23 09:58:59;;;;;;;0.40;0.40;;;;;;;3.93;94.87;95880.56;5025094;28;20049;-73
2023/12/23 10:01:26;;;;;;;0.50;0.50;;;;;;;4.27;94.24;95877.03;5026442;28;20131;-73
2023/12/23 10:03:54;;;;;;;0.30;0.30;;;;;;;4.47;93.52;95873.63;5032535;28;20041;-75
2023/12/23 10:06:23;;;;;;;0.25;0.25;;;;;;;4.63;93.12;95870.63;5032323;28;20049;-75
2023/12/23 10:08:52;;;;;;;0.20;0.20;;;;;;;4.83;92.66;95878.59;5035573;28;20069;-74
2023/12/23 10:11:20;;;;;;;0.20;0.20;;;;;;;5.02;91.89;95869.84;5036725;28;20045;-73
2023/12/23 10:13:47;;;;;;;0.30;0.30;;;;;;;5.15;91.22;95861.94;5030572;28;20041;-74
2023/12/23 10:16:15;;;;;;;0.20;0.20;;;;;;;5.26;91.01;95855.22;5036587;28;20467;-74
2023/12/23 10:18:43;;;;;;;0.30;0.30;;;;;;;5.39;90.23;95845.47;5031294;28;20033;-74
2023/12/23 10:21:10;;;;;;;0.30;0.30;;;;;;;5.39;90.67;95847.28;5028423;28;20077;-73
2023/12/23 10:23:38;;;;;;;0.45;0.45;;;;;;;5.42;90.72;95844.22;5037451;28;20052;-73
2023/12/23 10:26:07;;;;;;;0.20;0.20;;;;;;;5.46;90.66;95845.44;5031037;28;20544;-75
2023/12/23 10:28:36;;;;;;;0.55;0.55;;;;;;;5.48;90.65;95836.28;5029196;28;20109;-74
2023/12/23 10:31:04;;;;;;;0.20;0.20;;;;;;;5.56;90.16;95834.44;5030244;28;20050;-73
2023/12/23 10:33:37;;;;;;;0.32;0.32;;;;;;;5.68;89.22;95824.84;5028316;28;20053;-73
2023/12/23 10:36:06;;;;;;;0.20;0.20;;;;;;;5.72;89.25;95834.78;5029799;28;20091;-73
2023/12/23 10:38:36;;;;;;;0.20;0.20;;;;;;;5.78;89.13;95849.84;5032221;28;20037;-74
2023/12/23 10:41:23;;;;;;;0.30;0.30;;;;;;;5.84;88.67;95842.91;5027292;28;20077;-74
2023/12/23 10:43:53;;;;;;;0.20;0.20;;;;;;;5.82;88.79;95844.94;5027547;28;20124;-73
2023/12/23 10:46:21;;;;;;;0.30;0.30;;;;;;;5.88;88.49;95842.31;5030516;28;20045;-73
2023/12/23 10:48:49;;;;;;;0.30;0.30;;;;;;;5.93;88.37;95838.22;5024000;28;20053;-73
2023/12/23 10:51:17;;;;;;;0.35;0.35;;;;;;;5.93;88.56;95844.31;5030788;28;20103;-75
2023/12/23 10:53:46;;;;;;;0.30;0.30;;;;;;;5.97;88.13;95853.47;5030700;28;20412;-73
2023/12/23 10:56:14;;;;;;;0.30;0.30;;;;;;;5.96;88.48;95833.31;5027594;28;20081;-73
2023/12/23 10:58:44;;;;;;;0.30;0.30;;;;;;;5.98;88.39;95844.53;5031922;28;20042;-74
2023/12/23 11:01:13;;;;;;;0.35;0.35;;;;;;;5.95;88.80;95850.22;5019837;28;20090;-74
2023/12/23 11:03:41;;;;;;;0.20;0.20;;;;;;;6.00;88.42;95839.03;5030849;28;20045;-73
2023/12/23 11:06:09;;;;;;;0.20;0.20;;;;;;;6.00;88.51;95847.78;5026041;28;20052;-73
2023/12/23 11:08:38;;;;;;;0.40;0.40;;;;;;;6.04;88.26;95842.84;5026899;28;20117;-74
2023/12/23 11:11:05;;;;;;;0.20;0.20;;;;;;;6.08;88.20;95857.31;5032572;28;20053;-75
2023/12/23 11:13:33;;;;;;;0.30;0.30;;;;;;;6.21;86.88;95857.28;5028833;28;20045;-73
2023/12/23 11:16:02;;;;;;;0.28;0.28;;;;;;;6.24;87.08;95849.69;5013598;28;20516;-73
2023/12/23 11:18:30;;;;;;;0.20;0.20;;;;;;;6.20;87.41;95839.75;5032610;28;20034;-73
2023/12/23 11:20:58;;;;;;;0.30;0.30;;;;;;;6.20;87.76;95848.50;5015555;28;20556;-74
2023/12/23 11:23:33;;;;;;;0.30;0.30;;;;;;;6.19;87.83;95843.41;5027779;28;20057;-75
2023/12/23 11:26:02;;;;;;;0.28;0.28;;;;;;;6.19;87.98;95840.78;5025471;28;20042;-75
2023/12/23 11:28:33;;;;;;;0.20;0.20;;;;;;;6.21;87.74;95844.03;5032052;28;20124;-74
2023/12/23 11:31:03;;;;;;;0.20;0.20;;;;;;;6.24;88.25;95854.19;5028703;28;20042;-73
2023/12/23 11:33:32;;;;;;;0.30;0.30;;;;;;;6.27;87.46;95840.53;5024363;28;20041;-73
2023/12/23 11:36:00;;;;;;;0.38;0.38;;;;;;;6.25;88.10;95855.81;5027836;28;20328;-74
2023/12/23 11:38:29;;;;;;;0.30;0.30;;;;;;;6.29;88.16;95862.31;5022457;28;20037;-73
2023/12/23 11:40:57;;;;;;;0.20;0.20;;;;;;;6.23;88.53;95848.06;5032358;28;20084;-73
2023/12/23 11:43:25;;;;;;;0.30;0.30;;;;;;;6.21;88.83;95858.09;5028921;28;20042;-73
2023/12/23 11:45:53;;;;;;;0.30;0.30;;;;;;;6.21;89.14;95863.38;5032175;28;20072;-73